createdAt,value
2023-03-06T00:00:54.256Z,99656.09
2023-03-06T00:03:24.012Z,99646.50
2023-03-06T00:05:55.662Z,99655.19
2023-03-06T00:08:25.169Z,99645.63
2023-03-06T00:10:54.633Z,99641.28
2023-03-06T00:13:30.174Z,99648.28
2023-03-06T00:16:01.639Z,99644.72
2023-03-06T00:18:30.806Z,99645.56
2023-03-06T00:21:00.476Z,99637.78
2023-03-06T00:23:29.653Z,99641.25
2023-03-06T00:25:59.063Z,99628.13
2023-03-06T00:28:31.025Z,99638.63
2023-03-06T00:31:00.595Z,99636.91
2023-03-06T00:33:30.920Z,99640.41
2023-03-06T00:36:00.379Z,99635.09
2023-03-06T00:38:33.543Z,99634.25
2023-03-06T00:41:10.969Z,99642.97
2023-03-06T00:43:41.484Z,99641.25
2023-03-06T00:46:11.036Z,99648.25
2023-03-06T00:48:41.659Z,99642.16
2023-03-06T00:51:13.850Z,99646.47
2023-03-06T00:53:43.185Z,99647.34
2023-03-06T00:56:12.553Z,99649.09
2023-03-06T00:58:43.227Z,99645.63
2023-03-06T01:01:12.774Z,99646.53
2023-03-06T01:03:41.835Z,99647.34
2023-03-06T01:06:11.420Z,99643.03
2023-03-06T01:08:40.484Z,99646.50
2023-03-06T01:11:09.838Z,99636.84
2023-03-06T01:13:39.319Z,99631.63
2023-03-06T01:16:13.550Z,99637.75
2023-03-06T01:18:43.309Z,99635.16
2023-03-06T01:21:13.350Z,99636.97
2023-03-06T01:23:42.897Z,99634.34
2023-03-06T01:26:12.722Z,99623.00
2023-03-06T01:28:41.855Z,99634.34
2023-03-06T01:31:12.982Z,99623.00
2023-03-06T01:33:42.354Z,99628.25
2023-03-06T01:36:14.104Z,99622.16
2023-03-06T01:38:43.396Z,99611.63
2023-03-06T01:41:15.821Z,99620.38
2023-03-06T01:43:47.289Z,99619.53
2023-03-06T01:46:27.279Z,99608.13
2023-03-06T01:48:59.009Z,99611.63
2023-03-06T01:51:34.409Z,99605.53
2023-03-06T01:54:09.985Z,99603.78
2023-03-06T01:56:41.932Z,99601.13
2023-03-06T01:59:12.028Z,99594.19
2023-03-06T02:01:44.974Z,99593.31
2023-03-06T02:04:14.892Z,99600.31
2023-03-06T02:06:46.296Z,99593.31
2023-03-06T02:09:15.513Z,99596.75
2023-03-06T02:11:46.405Z,99599.34
2023-03-06T02:14:18.379Z,99597.66
2023-03-06T02:16:50.726Z,99597.69
2023-03-06T02:19:33.704Z,99592.41
2023-03-06T02:22:03.767Z,99588.94
2023-03-06T02:24:41.885Z,99592.50
2023-03-06T02:27:15.068Z,99593.34
2023-03-06T02:29:45.706Z,99585.44
2023-03-06T02:32:15.165Z,99585.44
2023-03-06T02:34:53.068Z,99586.34
2023-03-06T02:37:23.209Z,99584.56
2023-03-06T02:39:58.833Z,99585.44
2023-03-06T02:42:30.665Z,99587.25
2023-03-06T02:45:04.350Z,99588.13
2023-03-06T02:47:34.044Z,99585.50
2023-03-06T02:50:03.227Z,99583.75
2023-03-06T02:52:32.601Z,99579.41
2023-03-06T02:55:01.787Z,99580.31
2023-03-06T02:57:32.690Z,99580.31
2023-03-06T03:00:02.208Z,99576.81
2023-03-06T03:02:32.469Z,99577.72
2023-03-06T03:05:01.748Z,99577.72
2023-03-06T03:07:32.160Z,99569.03
2023-03-06T03:10:01.370Z,99570.75
2023-03-06T03:12:33.175Z,99575.13
2023-03-06T03:15:02.386Z,99576.94
2023-03-06T03:17:31.749Z,99564.69
2023-03-06T03:20:01.038Z,99564.72
2023-03-06T03:22:32.369Z,99565.59
2023-03-06T03:25:01.597Z,99580.47
2023-03-06T03:27:32.476Z,99571.75
2023-03-06T03:33:35.299Z,99564.69
2023-03-06T03:36:07.237Z,99563.81
2023-03-06T03:38:39.690Z,99560.34
2023-03-06T03:41:09.438Z,99557.75
2023-03-06T03:43:40.300Z,99559.50
2023-03-06T03:46:09.918Z,99557.78
2023-03-06T03:48:39.416Z,99556.94
2023-03-06T03:51:10.437Z,99550.81
2023-03-06T03:53:43.520Z,99560.47
2023-03-06T03:56:15.767Z,99555.28
2023-03-06T03:58:55.385Z,99551.75
2023-03-06T04:01:26.393Z,99555.28
2023-03-06T04:03:56.506Z,99547.34
2023-03-06T04:06:25.995Z,99545.63
2023-03-06T04:08:55.401Z,99553.47
2023-03-06T04:11:26.063Z,99548.22
2023-03-06T04:13:57.281Z,99551.75
2023-03-06T04:16:27.291Z,99552.63
2023-03-06T04:18:57.686Z,99541.28
2023-03-06T04:21:27.214Z,99548.22
2023-03-06T04:23:56.753Z,99543.88
2023-03-06T04:26:26.188Z,99536.94
2023-03-06T04:28:55.694Z,99550.91
2023-03-06T04:31:26.770Z,99546.53
2023-03-06T04:33:56.065Z,99550.03
2023-03-06T04:36:29.782Z,99550.00
2023-03-06T04:39:03.622Z,99543.03
2023-03-06T04:41:34.960Z,99542.97
2023-03-06T04:44:04.895Z,99549.09
2023-03-06T04:46:36.289Z,99540.38
2023-03-06T04:49:05.564Z,99544.75
2023-03-06T04:51:36.821Z,99549.16
2023-03-06T04:54:06.581Z,99551.78
2023-03-06T04:56:35.964Z,99555.28
2023-03-06T04:59:05.434Z,99552.69
2023-03-06T05:01:36.167Z,99553.53
2023-03-06T05:04:05.587Z,99557.06
2023-03-06T05:06:35.070Z,99557.09
2023-03-06T05:09:04.309Z,99547.47
2023-03-06T05:11:33.706Z,99551.00
2023-03-06T05:14:02.916Z,99550.16
2023-03-06T05:16:32.413Z,99556.28
2023-03-06T05:19:03.002Z,99558.03
2023-03-06T05:21:32.502Z,99561.53
2023-03-06T05:24:01.742Z,99558.06
2023-03-06T05:26:31.334Z,99565.94
2023-03-06T05:29:00.389Z,99570.28
2023-03-06T05:31:29.868Z,99566.78
2023-03-06T05:33:59.574Z,99569.47
2023-03-06T05:36:30.385Z,99564.25
2023-03-06T05:38:59.705Z,99574.75
2023-03-06T05:41:29.119Z,99578.25
2023-03-06T05:43:58.894Z,99573.94
2023-03-06T05:46:28.345Z,99573.03
2023-03-06T05:48:58.556Z,99580.00
2023-03-06T05:51:29.470Z,99582.66
2023-03-06T05:53:58.683Z,99579.16
2023-03-06T05:56:28.390Z,99581.78
2023-03-06T05:58:57.670Z,99579.19
2023-03-06T06:01:28.766Z,99583.53
2023-03-06T06:03:57.979Z,99580.03
2023-03-06T06:06:27.328Z,99582.66
2023-03-06T06:08:57.901Z,99584.41
2023-03-06T06:11:27.441Z,99581.78
2023-03-06T06:13:56.620Z,99587.00
2023-03-06T06:16:26.122Z,99583.50
2023-03-06T06:18:55.177Z,99586.09
2023-03-06T06:21:24.654Z,99581.69
2023-03-06T06:23:53.682Z,99582.53
2023-03-06T06:26:24.824Z,99588.66
2023-03-06T06:28:54.018Z,99585.97
2023-03-06T06:31:23.987Z,99591.22
2023-03-06T06:33:53.295Z,99592.88
2023-03-06T06:36:23.089Z,99590.22
2023-03-06T06:38:52.629Z,99591.94
2023-03-06T06:44:16.249Z,99593.66
2023-03-06T06:49:36.085Z,99598.66
2023-03-06T06:52:06.111Z,99596.00
2023-03-06T06:54:35.504Z,99600.34
2023-03-06T06:57:06.412Z,99588.09
2023-03-06T06:59:35.864Z,99592.34
2023-03-06T07:02:05.920Z,99592.28
2023-03-06T07:04:35.617Z,99598.28
2023-03-06T07:07:04.974Z,99593.84
2023-03-06T07:09:34.478Z,99597.22
2023-03-06T07:12:05.448Z,99596.25
2023-03-06T07:14:34.686Z,99611.97
2023-03-06T07:17:04.039Z,99599.66
2023-03-06T07:19:33.694Z,99603.91
2023-03-06T07:22:04.211Z,99599.47
2023-03-06T07:24:33.341Z,99606.38
2023-03-06T07:27:03.007Z,99604.59
2023-03-06T07:29:34.612Z,99608.00
2023-03-06T07:32:04.248Z,99610.53
2023-03-06T07:34:33.510Z,99607.81
2023-03-06T07:37:03.187Z,99608.53
2023-03-06T07:39:32.377Z,99610.19
2023-03-06T07:42:01.706Z,99605.78
2023-03-06T07:44:32.830Z,99603.03
2023-03-06T07:47:02.968Z,99612.44
2023-03-06T07:49:32.204Z,99599.31
2023-03-06T07:52:03.614Z,99600.94
2023-03-06T07:54:32.831Z,99601.59
2023-03-06T07:57:02.172Z,99598.09
2023-03-06T07:59:33.164Z,99603.16
2023-03-06T08:02:02.687Z,99602.22
2023-03-06T08:04:31.770Z,99602.91
2023-03-06T08:07:01.607Z,99592.34
2023-03-06T08:09:30.903Z,99599.22
2023-03-06T08:12:00.596Z,99606.03
2023-03-06T08:14:30.099Z,99604.09
2023-03-06T08:17:01.063Z,99604.00
2023-03-06T08:19:30.281Z,99607.22
2023-03-06T08:21:59.648Z,99602.72
2023-03-06T08:24:28.832Z,99607.00
2023-03-06T08:26:58.213Z,99612.97
2023-03-06T08:29:27.776Z,99598.75
2023-03-06T08:31:57.126Z,99604.81
2023-03-06T08:34:28.203Z,99603.78
2023-03-06T08:36:57.752Z,99609.69
2023-03-06T08:39:26.801Z,99606.94
2023-03-06T08:41:56.131Z,99600.56
2023-03-06T08:44:25.191Z,99597.75
2023-03-06T08:46:54.671Z,99594.97
2023-03-06T08:49:24.322Z,99604.44
2023-03-06T08:51:55.526Z,99601.72
2023-03-06T08:54:24.679Z,99603.31
2023-03-06T08:56:54.357Z,99602.19
2023-03-06T08:59:24.737Z,99599.34
2023-03-06T09:01:55.639Z,99601.78
2023-03-06T09:04:24.968Z,99600.63
2023-03-06T09:06:55.808Z,99598.59
2023-03-06T09:09:25.006Z,99600.09
2023-03-06T09:11:54.974Z,99600.59
2023-03-06T09:14:24.202Z,99608.34
2023-03-06T09:16:53.665Z,99604.66
2023-03-06T09:19:22.865Z,99605.28
2023-03-06T09:21:54.049Z,99604.25
2023-03-06T09:24:24.747Z,99607.72
2023-03-06T09:26:54.180Z,99610.34
2023-03-06T09:29:23.276Z,99613.94
2023-03-06T09:31:52.934Z,99614.00
2023-03-06T09:34:22.751Z,99614.88
2023-03-06T09:36:57.044Z,99612.09
2023-03-06T09:39:28.643Z,99608.59
2023-03-06T09:41:58.698Z,99611.19
2023-03-06T09:44:29.425Z,99610.94
2023-03-06T09:47:12.415Z,99609.06
2023-03-06T09:49:54.093Z,99607.34
2023-03-06T09:52:32.557Z,99609.94
2023-03-06T09:55:11.927Z,99612.41
2023-03-06T09:57:46.560Z,99614.00
2023-03-06T10:00:20.821Z,99609.66
2023-03-06T10:02:54.696Z,99613.28
2023-03-06T10:05:34.288Z,99612.41
2023-03-06T10:08:07.834Z,99612.50
2023-03-06T10:10:45.899Z,99606.38
2023-03-06T10:13:20.888Z,99608.94
2023-03-06T10:15:51.273Z,99608.88
2023-03-06T10:18:20.731Z,99602.47
2023-03-06T10:20:56.112Z,99603.94
2023-03-06T10:23:43.200Z,99601.97
2023-03-06T10:26:18.068Z,99612.41
2023-03-06T10:28:53.927Z,99615.81
2023-03-06T10:31:25.875Z,99608.78
2023-03-06T10:33:59.100Z,99614.88
2023-03-06T10:36:31.146Z,99611.38
2023-03-06T10:39:01.031Z,99618.47
2023-03-06T10:41:32.909Z,99610.47
2023-03-06T10:44:26.478Z,99612.22
2023-03-06T10:46:56.425Z,99615.59
2023-03-06T10:49:30.166Z,99603.38
2023-03-06T10:52:02.951Z,99605.91
2023-03-06T10:54:34.556Z,99610.22
2023-03-06T10:57:25.948Z,99600.22
2023-03-06T10:59:57.300Z,99609.16
2023-03-06T11:02:30.013Z,99601.91
2023-03-06T11:05:01.138Z,99599.19
2023-03-06T11:07:31.933Z,99599.06
2023-03-06T11:10:08.826Z,99603.41
2023-03-06T11:12:42.679Z,99594.59
2023-03-06T11:15:22.380Z,99591.03
2023-03-06T11:17:58.964Z,99591.03
2023-03-06T11:20:48.513Z,99592.63
2023-03-06T11:23:23.088Z,99582.69
2023-03-06T11:25:57.357Z,99576.19
2023-03-06T11:28:33.999Z,99567.09
2023-03-06T11:31:09.781Z,99564.97
2023-03-06T11:33:46.475Z,99565.56
2023-03-06T11:36:24.066Z,99569.78
2023-03-06T11:38:54.848Z,99570.56
2023-03-06T11:41:34.076Z,99569.53
2023-03-06T11:44:13.965Z,99574.91
2023-03-06T11:46:49.445Z,99576.50
2023-03-06T11:49:25.579Z,99572.19
2023-03-06T11:51:58.783Z,99565.88
2023-03-06T11:54:28.309Z,99569.31
2023-03-06T11:57:02.878Z,99568.50
2023-03-06T12:00:02.187Z,99568.50
2023-03-06T12:02:50.891Z,99571.22
2023-03-06T12:05:35.585Z,99575.63
2023-03-06T12:08:34.554Z,99571.44
2023-03-06T12:11:12.505Z,99573.88
2023-03-06T12:14:03.999Z,99563.44
2023-03-06T12:16:59.539Z,99570.56
2023-03-06T12:19:52.239Z,99568.81
2023-03-06T12:22:40.304Z,99564.31
2023-03-06T12:25:29.361Z,99567.91
2023-03-06T12:28:13.659Z,99567.91
2023-03-06T12:31:02.379Z,99565.13
2023-03-06T12:33:42.293Z,99564.03
2023-03-06T12:36:25.838Z,99569.63
2023-03-06T12:39:04.763Z,99560.78
2023-03-06T12:41:44.813Z,99557.22
2023-03-06T12:44:39.414Z,99564.31
2023-03-06T12:47:13.876Z,99558.13
2023-03-06T12:49:49.809Z,99559.03
2023-03-06T12:52:30.341Z,99559.84
2023-03-06T12:55:06.946Z,99554.69
2023-03-06T12:57:38.523Z,99546.59
2023-03-06T13:00:11.374Z,99553.34
2023-03-06T13:03:07.891Z,99560.47
2023-03-06T13:05:58.908Z,99541.97
2023-03-06T13:09:00.229Z,99544.59
2023-03-06T13:11:48.067Z,99544.25
2023-03-06T13:14:26.251Z,99533.59
2023-03-06T13:16:55.718Z,99538.88
2023-03-06T13:19:27.020Z,99537.78
2023-03-06T13:22:14.659Z,99542.97
2023-03-06T13:24:45.555Z,99526.06
2023-03-06T13:28:00.389Z,99531.31
2023-03-06T13:30:46.491Z,99531.19
2023-03-06T13:33:54.870Z,99536.38
2023-03-06T13:36:32.017Z,99526.13
2023-03-06T13:39:19.599Z,99535.09
2023-03-06T13:42:01.302Z,99540.66
2023-03-06T13:44:51.850Z,99537.25
2023-03-06T13:48:02.817Z,99539.84
2023-03-06T13:50:38.330Z,99535.50
2023-03-06T13:53:41.284Z,99538.28
2023-03-06T13:56:42.710Z,99532.56
2023-03-06T13:59:40.133Z,99536.00
2023-03-06T14:02:36.349Z,99526.38
2023-03-06T14:05:13.418Z,99529.94
2023-03-06T14:07:45.973Z,99518.66
2023-03-06T14:10:24.848Z,99523.22
2023-03-06T14:13:04.513Z,99523.94
2023-03-06T14:15:43.151Z,99523.16
2023-03-06T14:18:20.825Z,99527.41
2023-03-06T14:20:55.735Z,99534.75
2023-03-06T14:23:29.621Z,99526.97
2023-03-06T14:26:06.398Z,99527.06
2023-03-06T14:28:37.164Z,99521.75
2023-03-06T14:31:07.620Z,99526.19
2023-03-06T14:33:44.678Z,99523.59
2023-03-06T14:36:17.607Z,99520.09
2023-03-06T14:38:51.543Z,99521.88
2023-03-06T14:41:26.928Z,99521.81
2023-03-06T14:44:19.459Z,99527.31
2023-03-06T14:46:50.786Z,99523.75
2023-03-06T14:49:23.671Z,99523.94
2023-03-06T14:51:55.450Z,99528.50
2023-03-06T14:54:29.731Z,99525.03
2023-03-06T14:57:03.849Z,99526.06
2023-03-06T14:59:44.612Z,99530.47
2023-03-06T15:02:21.536Z,99526.13
2023-03-06T15:04:55.702Z,99532.38
2023-03-06T15:07:29.212Z,99527.16
2023-03-06T15:10:00.733Z,99526.34
2023-03-06T15:12:39.499Z,99523.75
2023-03-06T15:15:41.443Z,99533.47
2023-03-06T15:18:33.854Z,99532.59
2023-03-06T15:21:18.215Z,99540.50
2023-03-06T15:23:49.159Z,99543.44
2023-03-06T15:26:29.379Z,99538.34
2023-03-06T15:29:09.082Z,99543.75
2023-03-06T15:31:39.289Z,99531.53
2023-03-06T15:34:32.437Z,99531.63
2023-03-06T15:37:19.956Z,99523.03
2023-03-06T15:40:06.778Z,99525.19
2023-03-06T15:42:40.908Z,99539.94
2023-03-06T15:45:15.919Z,99531.03
2023-03-06T15:47:48.405Z,99533.84
2023-03-06T15:50:22.068Z,99525.25
2023-03-06T15:52:54.306Z,99531.41
2023-03-06T15:55:26.027Z,99526.28
2023-03-06T15:58:00.799Z,99525.25
2023-03-06T16:00:34.179Z,99526.19
2023-03-06T16:03:05.934Z,99524.44
2023-03-06T16:05:35.937Z,99527.16
2023-03-06T16:08:11.178Z,99522.88
2023-03-06T16:10:43.965Z,99529.19
2023-03-06T16:13:17.223Z,99530.16
2023-03-06T16:15:49.752Z,99526.84
2023-03-06T16:18:53.067Z,99532.31
2023-03-06T16:21:24.084Z,99532.44
2023-03-06T16:23:54.987Z,99530.00
2023-03-06T16:26:30.715Z,99531.91
2023-03-06T16:29:00.495Z,99526.75
2023-03-06T16:31:30.003Z,99532.25
2023-03-06T16:33:59.039Z,99535.88
2023-03-06T16:36:30.204Z,99534.22
2023-03-06T16:39:00.846Z,99537.00
2023-03-06T16:41:33.117Z,99544.09
2023-03-06T16:44:02.464Z,99534.56
2023-03-06T16:46:33.104Z,99534.66
2023-03-06T16:49:06.126Z,99543.59
2023-03-06T16:51:39.153Z,99546.34
2023-03-06T16:54:09.694Z,99545.53
2023-03-06T16:56:39.698Z,99550.03
2023-03-06T16:59:09.216Z,99552.91
2023-03-06T17:01:39.212Z,99551.56
2023-03-06T17:04:08.419Z,99558.66
2023-03-06T17:06:38.506Z,99553.63
2023-03-06T17:09:10.980Z,99555.47
2023-03-06T17:11:43.076Z,99563.28
2023-03-06T17:14:12.669Z,99565.97
2023-03-06T17:16:42.588Z,99563.44
2023-03-06T17:19:15.549Z,99567.94
2023-03-06T17:21:45.477Z,99569.75
2023-03-06T17:24:16.354Z,99564.50
2023-03-06T17:26:47.001Z,99567.22
2023-03-06T17:29:16.423Z,99572.47
2023-03-06T17:31:47.271Z,99566.28
2023-03-06T17:34:16.606Z,99561.06
2023-03-06T17:36:45.914Z,99561.94
2023-03-06T17:39:16.399Z,99561.97
2023-03-06T17:41:46.558Z,99559.34
2023-03-06T17:44:16.542Z,99562.03
2023-03-06T17:46:46.840Z,99563.84
2023-03-06T17:49:16.451Z,99563.94
2023-03-06T17:51:46.193Z,99559.59
2023-03-06T17:54:17.012Z,99552.72
2023-03-06T17:56:46.699Z,99554.53
2023-03-06T17:59:16.009Z,99551.25
2023-03-06T18:01:46.188Z,99546.06
2023-03-06T18:04:15.178Z,99545.25
2023-03-06T18:06:44.785Z,99549.72
2023-03-06T18:09:15.226Z,99547.25
2023-03-06T18:11:44.890Z,99547.41
2023-03-06T18:14:14.165Z,99548.41
2023-03-06T18:16:43.959Z,99552.03
2023-03-06T18:19:14.409Z,99551.25
2023-03-06T18:21:44.407Z,99549.56
2023-03-06T18:24:15.019Z,99552.34
2023-03-06T18:26:44.533Z,99547.16
2023-03-06T18:29:13.638Z,99544.66
2023-03-06T18:31:44.867Z,99550.03
2023-03-06T18:34:17.539Z,99550.16
2023-03-06T18:36:50.777Z,99556.41
2023-03-06T18:39:22.448Z,99555.66
2023-03-06T18:41:52.259Z,99557.50
2023-03-06T18:44:24.022Z,99561.13
2023-03-06T18:46:53.587Z,99556.00
2023-03-06T18:49:22.766Z,99550.84
2023-03-06T18:51:53.131Z,99550.06
2023-03-06T18:54:24.574Z,99559.81
2023-03-06T18:56:54.178Z,99554.72
2023-03-06T18:59:23.625Z,99560.88
2023-03-06T19:01:57.517Z,99559.22
2023-03-06T19:04:27.466Z,99558.41
2023-03-06T19:06:57.663Z,99560.22
2023-03-06T19:09:30.397Z,99559.44
2023-03-06T19:12:00.355Z,99558.63
2023-03-06T19:14:29.944Z,99547.28
2023-03-06T19:16:59.336Z,99563.09
2023-03-06T19:19:29.922Z,99560.50
2023-03-06T19:22:00.231Z,99564.94
2023-03-06T19:24:31.254Z,99562.34
2023-03-06T19:27:00.797Z,99565.03
2023-03-06T19:29:29.898Z,99563.34
2023-03-06T19:31:59.734Z,99560.78
2023-03-06T19:34:28.973Z,99570.50
2023-03-06T19:36:58.667Z,99577.53
2023-03-06T19:39:27.791Z,99572.38
2023-03-06T19:42:00.783Z,99569.78
2023-03-06T19:44:34.052Z,99571.56
2023-03-06T19:47:06.843Z,99571.59
2023-03-06T19:49:38.136Z,99563.81
2023-03-06T19:52:08.269Z,99562.13
2023-03-06T19:54:37.855Z,99569.19
2023-03-06T19:57:08.935Z,99579.75
2023-03-06T19:59:38.225Z,99569.34
2023-03-06T20:02:08.038Z,99567.66
2023-03-06T20:04:39.442Z,99571.19
2023-03-06T20:07:08.954Z,99565.16
2023-03-06T20:09:38.412Z,99576.59
2023-03-06T20:12:09.364Z,99568.84
2023-03-06T20:14:39.814Z,99574.09
2023-03-06T20:17:09.798Z,99571.59
2023-03-06T20:19:40.580Z,99562.91
2023-03-06T20:22:10.588Z,99563.81
2023-03-06T20:24:40.362Z,99568.25
2023-03-06T20:27:12.303Z,99563.94
2023-03-06T20:29:44.978Z,99564.84
2023-03-06T20:32:15.403Z,99568.41
2023-03-06T20:34:46.633Z,99557.09
2023-03-06T20:37:16.094Z,99556.28
2023-03-06T20:39:48.345Z,99561.59
2023-03-06T20:42:19.227Z,99559.91
2023-03-06T20:44:49.110Z,99558.22
2023-03-06T20:47:18.598Z,99560.88
2023-03-06T20:49:47.685Z,99553.91
2023-03-06T20:52:18.919Z,99547.88
2023-03-06T20:54:48.127Z,99553.16
2023-03-06T20:57:19.097Z,99550.56
2023-03-06T20:59:48.305Z,99553.22
2023-03-06T21:02:17.995Z,99551.50
2023-03-06T21:04:47.290Z,99547.22
2023-03-06T21:07:17.051Z,99554.25
2023-03-06T21:09:47.988Z,99550.78
2023-03-06T21:12:19.005Z,99549.97
2023-03-06T21:14:48.418Z,99556.13
2023-03-06T21:17:18.873Z,99557.91
2023-03-06T21:19:48.040Z,99549.22
2023-03-06T21:22:17.403Z,99540.50
2023-03-06T21:24:46.680Z,99547.53
2023-03-06T21:27:16.115Z,99536.22
2023-03-06T21:29:48.030Z,99544.09
2023-03-06T21:32:17.977Z,99534.53
2023-03-06T21:34:47.042Z,99541.53
2023-03-06T21:37:16.560Z,99534.56
2023-03-06T21:39:45.620Z,99532.88
2023-03-06T21:42:15.215Z,99531.16
2023-03-06T21:44:44.513Z,99530.28
2023-03-06T21:47:15.410Z,99524.22
2023-03-06T21:49:44.955Z,99529.47
2023-03-06T21:52:14.335Z,99526.88
2023-03-06T21:54:43.530Z,99527.78
2023-03-06T21:57:13.247Z,99536.50
2023-03-06T21:59:42.504Z,99533.91
2023-03-06T22:02:12.584Z,99538.28
2023-03-06T22:04:44.277Z,99533.97
2023-03-06T22:07:13.701Z,99533.16
2023-03-06T22:09:42.779Z,99530.56
2023-03-06T22:12:12.571Z,99528.78
2023-03-06T22:14:44.115Z,99526.19
2023-03-06T22:17:13.714Z,99528.84
2023-03-06T22:19:44.174Z,99525.38
2023-03-06T22:22:13.580Z,99524.53
2023-03-06T22:24:42.719Z,99521.06
2023-03-06T22:27:12.259Z,99528.06
2023-03-06T22:29:41.477Z,99519.34
2023-03-06T22:32:10.945Z,99522.00
2023-03-06T22:34:40.439Z,99522.84
2023-03-06T22:37:11.306Z,99526.38
2023-03-06T22:39:40.598Z,99514.19
2023-03-06T22:42:09.986Z,99515.06
2023-03-06T22:44:39.646Z,99515.94
2023-03-06T22:47:09.012Z,99515.09
2023-03-06T22:49:39.544Z,99515.13
2023-03-06T22:52:10.631Z,99505.56
2023-03-06T22:54:40.220Z,99506.41
2023-03-06T22:57:09.794Z,99511.69
2023-03-06T22:59:38.901Z,99507.34
2023-03-06T23:02:08.394Z,99507.34
2023-03-06T23:04:37.512Z,99510.81
2023-03-06T23:07:07.095Z,99513.44
2023-03-06T23:09:37.727Z,99501.28
2023-03-06T23:12:25.733Z,99506.50
2023-03-06T23:15:13.814Z,99505.66
2023-03-06T23:18:02.276Z,99509.16
2023-03-06T23:20:50.170Z,99508.28
2023-03-06T23:23:39.075Z,99511.78
2023-03-06T23:26:11.308Z,99503.94
2023-03-06T23:28:41.638Z,99500.47
2023-03-06T23:31:12.202Z,99500.47
2023-03-06T23:33:42.725Z,99492.66
2023-03-06T23:36:13.451Z,99497.88
2023-03-06T23:38:43.309Z,99500.50
2023-03-06T23:41:16.651Z,99491.81
2023-03-06T23:43:46.548Z,99496.13
2023-03-06T23:46:16.163Z,99490.94
2023-03-06T23:48:46.765Z,99492.69
2023-03-06T23:51:18.424Z,99490.06
2023-03-06T23:53:49.550Z,99488.31
2023-03-06T23:56:20.380Z,99480.50
2023-03-06T23:58:49.937Z,99477.91
